Time;durP1;ratioP1;P1;durP2;ratioP2;P2;SDS_P1;SDS_P2;PMS_P1;PMS_P2;Temp;Humidity;BMP_temperature;BMP_pressure;BME280_temperature;BME280_humidity;BME280_pressure;Samples;Min_cycle;Max_cycle;Signal;HPM_P1;HPM_P2
2021/12/13 00:01:42;;;;;;;165.90;58.20;;;;;;;-1.40;85.62;101446.80;84822;1322;23239;-74
2021/12/13 00:03:52;;;;;;;160.90;51.10;;;;;;;-1.38;85.60;101448.75;84791;1327;22608;-75
2021/12/13 00:05:59;;;;;;;;;;;;;;;-1.37;85.61;101448.09;84791;1326;22594;-68
2021/12/13 00:08:07;;;;;;;167.70;53.20;;;;;;;-1.39;85.73;101451.11;84804;1327;22615;-69
2021/12/13 00:10:17;;;;;;;170.50;55.20;;;;;;;-1.38;85.64;101452.17;84800;1328;22561;-72
2021/12/13 00:12:30;;;;;;;159.70;52.00;;;;;;;-1.39;85.69;101455.41;84797;1322;22599;-69
2021/12/13 00:14:46;;;;;;;160.70;53.70;;;;;;;-1.40;85.53;101458.45;84860;1327;22612;-69
2021/12/13 00:17:08;;;;;;;148.70;50.10;;;;;;;-1.41;85.62;101455.68;84810;1327;22600;-72
2021/12/13 00:19:19;;;;;;;151.60;53.20;;;;;;;-1.40;85.59;101456.05;84772;1327;22747;-73
2021/12/13 00:21:31;;;;;;;164.40;52.30;;;;;;;-1.41;85.46;101453.98;84772;1328;22596;-72
2021/12/13 00:23:43;;;;;;;141.70;48.50;;;;;;;-1.42;85.35;101457.20;84802;1327;22607;-73
2021/12/13 00:25:51;;;;;;;141.90;49.80;;;;;;;-1.41;85.43;101457.22;84805;1325;22618;-72
2021/12/13 00:28:03;;;;;;;139.40;50.80;;;;;;;-1.41;85.58;101457.05;84808;1325;22616;-75
2021/12/13 00:30:15;;;;;;;154.90;51.80;;;;;;;-1.41;85.41;101454.84;84809;1327;22618;-73
2021/12/13 00:32:23;;;;;;;156.30;51.90;;;;;;;-1.41;85.47;101453.80;84799;1326;25459;-67
2021/12/13 00:34:35;;;;;;;157.90;51.40;;;;;;;-1.42;85.64;101452.92;84775;1326;22600;-72
2021/12/13 00:36:47;;;;;;;170.70;53.30;;;;;;;-1.42;85.64;101455.48;84814;1320;22593;-73
2021/12/13 00:38:55;;;;;;;166.50;55.10;;;;;;;-1.41;85.59;101453.47;84829;1326;22602;-72
2021/12/13 00:41:05;;;;;;;154.60;52.70;;;;;;;-1.40;85.60;101451.77;84813;1327;22592;-69
2021/12/13 00:43:20;;;;;;;151.10;50.40;;;;;;;-1.40;85.33;101453.81;84816;1323;22600;-69
2021/12/13 00:45:30;;;;;;;150.60;50.90;;;;;;;-1.39;85.45;101456.41;84783;1325;22612;-69
2021/12/13 00:47:38;;;;;;;158.50;51.70;;;;;;;-1.38;85.43;101456.94;84820;1326;22606;-75
2021/12/13 00:49:46;;;;;;;156.90;50.40;;;;;;;-1.40;85.64;101456.55;84808;1326;26591;-73
2021/12/13 00:51:56;;;;;;;152.80;52.20;;;;;;;-1.41;85.54;101456.55;84703;1327;22597;-73
2021/12/13 00:54:10;;;;;;;164.30;51.70;;;;;;;-1.40;85.57;101453.65;84799;1328;22582;-73
2021/12/13 00:56:45;;;;;;;152.00;52.70;;;;;;;-1.43;85.55;101450.34;84815;1326;22593;-71
2021/12/13 00:58:52;;;;;;;146.40;49.20;;;;;;;-1.43;85.62;101450.48;84791;1326;22607;-69
2021/12/13 01:01:04;;;;;;;162.00;53.80;;;;;;;-1.43;85.45;101452.54;84807;1318;22962;-69
2021/12/13 01:03:15;;;;;;;145.70;51.00;;;;;;;-1.43;85.38;101457.17;84807;1322;23074;-70
2021/12/13 01:05:31;;;;;;;147.60;52.30;;;;;;;-1.42;85.34;101456.50;84801;1325;22611;-69
2021/12/13 01:08:08;;;;;;;152.20;48.60;;;;;;;-1.44;85.24;101465.04;84810;1322;22625;-68
2021/12/13 01:10:50;;;;;;;130.90;48.30;;;;;;;-1.44;85.38;101465.69;84105;1326;1003704;-69
2021/12/13 01:12:57;;;;;;;136.60;47.40;;;;;;;-1.44;85.35;101463.96;84794;1327;22617;-72
2021/12/13 01:15:05;;;;;;;152.20;52.00;;;;;;;-1.45;85.48;101457.61;84805;1325;25253;-74
2021/12/13 01:17:22;;;;;;;152.80;51.80;;;;;;;-1.45;85.79;101457.45;84810;1327;26480;-72
2021/12/13 01:19:47;;;;;;;145.70;51.50;;;;;;;-1.45;85.46;101460.69;84795;1327;22857;-72
2021/12/13 01:22:19;;;;;;;148.80;49.80;;;;;;;-1.47;85.40;101455.69;84794;1326;22607;-72
2021/12/13 01:24:52;;;;;;;142.00;45.20;;;;;;;-1.47;85.44;101460.31;84816;1327;22598;-73
2021/12/13 01:26:58;;;;;;;142.30;47.90;;;;;;;-1.46;85.36;101461.52;84823;1327;22592;-69
2021/12/13 01:29:08;;;;;;;140.00;47.00;;;;;;;-1.45;85.44;101464.12;84790;1326;25516;-69
2021/12/13 01:31:19;;;;;;;143.80;47.80;;;;;;;-1.45;85.41;101464.96;84815;1326;25547;-68
2021/12/13 01:33:30;;;;;;;138.90;46.80;;;;;;;-1.49;85.14;101469.31;84797;1326;22601;-69
2021/12/13 01:35:39;;;;;;;135.20;45.40;;;;;;;-1.48;85.25;101478.23;84808;1327;22603;-68
2021/12/13 01:37:51;;;;;;;147.80;49.60;;;;;;;-1.50;85.34;101476.30;84817;1326;22613;-73
2021/12/13 01:39:58;;;;;;;148.10;44.30;;;;;;;-1.51;85.43;101473.04;84773;1329;22606;-72
2021/12/13 01:42:07;;;;;;;160.10;49.50;;;;;;;-1.49;85.74;101472.56;84832;1326;22577;-74
2021/12/13 01:44:18;;;;;;;133.60;46.70;;;;;;;-1.48;85.57;101474.45;84814;1327;25323;-74
2021/12/13 01:46:28;;;;;;;140.70;47.40;;;;;;;-1.47;85.38;101472.64;84808;1327;22602;-68
2021/12/13 01:48:37;;;;;;;137.90;49.10;;;;;;;-1.45;85.64;101473.02;84801;1326;24010;-69
2021/12/13 01:50:49;;;;;;;140.60;49.30;;;;;;;-1.44;85.67;101469.45;84773;1321;22564;-70
2021/12/13 01:52:56;;;;;;;147.40;49.30;;;;;;;-1.42;85.66;101466.09;84827;1327;22783;-73
2021/12/13 01:55:07;;;;;;;147.30;49.40;;;;;;;-1.44;85.54;101461.41;84786;1326;22640;-73
2021/12/13 01:57:24;;;;;;;158.50;54.60;;;;;;;-1.46;85.68;101454.33;84015;1330;1002950;-72
2021/12/13 01:59:49;;;;;;;154.10;49.10;;;;;;;-1.50;85.56;101450.45;84816;1329;22819;-73
2021/12/13 02:01:57;;;;;;;148.90;50.30;;;;;;;-1.50;85.74;101446.02;84812;1326;22630;-69
2021/12/13 02:04:07;;;;;;;144.30;47.00;;;;;;;-1.49;85.60;101441.23;84805;1326;23899;-68
2021/12/13 02:06:24;;;;;;;139.60;46.30;;;;;;;-1.48;85.59;101437.52;84821;1327;22799;-73
2021/12/13 02:08:30;;;;;;;149.80;52.20;;;;;;;-1.48;85.54;101442.64;84807;1327;22626;-73
2021/12/13 02:10:46;;;;;;;142.70;49.60;;;;;;;-1.49;85.63;101444.16;84793;1322;22615;-73
2021/12/13 02:12:59;;;;;;;146.30;45.90;;;;;;;-1.49;85.53;101441.41;84788;1325;22952;-73
2021/12/13 02:17:33;;;;;;;152.40;50.50;;;;;;;-1.49;85.85;101448.92;84807;1326;23887;-70
2021/12/13 02:19:46;;;;;;;153.30;51.00;;;;;;;-1.49;85.81;101450.31;84785;1325;25596;-69
2021/12/13 02:21:58;;;;;;;148.00;50.40;;;;;;;-1.48;85.76;101450.02;84806;1325;24335;-69
2021/12/13 02:24:07;;;;;;;147.30;48.90;;;;;;;-1.44;85.93;101452.66;84758;1327;22703;-70
2021/12/13 02:26:13;;;;;;;137.40;50.20;;;;;;;-1.41;85.87;101447.80;84809;1327;22604;-70
2021/12/13 02:28:21;;;;;;;154.70;52.70;;;;;;;-1.38;86.11;101448.75;84801;1326;22621;-70
2021/12/13 02:30:32;;;;;;;144.20;50.70;;;;;;;-1.37;85.75;101446.04;84775;1327;22644;-74
2021/12/13 02:32:44;;;;;;;164.70;52.70;;;;;;;-1.37;85.79;101443.64;84780;1326;22636;-72
2021/12/13 02:34:54;;;;;;;157.80;52.30;;;;;;;-1.37;85.89;101445.20;84810;1327;23838;-73
2021/12/13 02:37:00;;;;;;;152.00;49.30;;;;;;;-1.39;85.84;101444.79;84790;1322;23410;-73
2021/12/13 02:39:09;;;;;;;150.80;49.50;;;;;;;-1.40;85.92;101449.55;84775;1325;23910;-72
2021/12/13 02:41:17;;;;;;;156.60;51.40;;;;;;;-1.37;86.06;101448.42;84781;1326;22603;-71
2021/12/13 02:44:16;;;;;;;162.10;51.30;;;;;;;-1.35;85.86;101450.20;85358;1306;22384;31
2021/12/13 02:46:25;;;;;;;155.60;53.00;;;;;;;-1.36;85.71;101452.39;84232;1329;23026;-69
2021/12/13 02:48:34;;;;;;;153.80;53.80;;;;;;;-1.33;85.78;101453.50;84266;1338;22648;-68
2021/12/13 02:50:46;;;;;;;150.80;51.60;;;;;;;-1.30;86.17;101447.26;84281;1338;22652;-74
2021/12/13 02:52:52;;;;;;;167.80;52.50;;;;;;;-1.29;85.78;101450.70;84270;1329;22683;-74
2021/12/13 02:55:01;;;;;;;167.10;55.30;;;;;;;-1.31;85.85;101452.36;84261;1339;22634;-73
2021/12/13 02:57:12;;;;;;;166.80;52.50;;;;;;;-1.34;85.67;101451.10;84212;1338;25291;-72
2021/12/13 02:59:20;;;;;;;159.30;48.90;;;;;;;-1.35;85.89;101448.48;84200;1338;22692;-73
2021/12/13 03:01:29;;;;;;;172.80;52.60;;;;;;;-1.38;85.62;101450.11;84207;1338;24341;-73
2021/12/13 03:03:40;;;;;;;149.80;47.20;;;;;;;-1.38;85.63;101446.00;84181;1336;22665;-73
2021/12/13 03:05:49;;;;;;;138.90;49.30;;;;;;;-1.37;85.83;101448.95;84238;1338;23956;-69
2021/12/13 03:07:58;;;;;;;150.90;50.80;;;;;;;-1.36;85.67;101448.13;84229;1336;22708;-70
2021/12/13 03:10:08;;;;;;;140.40;50.40;;;;;;;-1.33;86.04;101450.08;84214;1338;22654;-74
2021/12/13 03:12:18;;;;;;;146.50;48.50;;;;;;;-1.30;85.83;101450.17;84229;1338;22596;-74
2021/12/13 03:14:30;;;;;;;137.20;46.20;;;;;;;-1.34;85.77;101455.19;84217;1337;24356;-70
2021/12/13 03:16:42;;;;;;;130.10;46.50;;;;;;;-1.37;85.71;101459.04;84182;1338;22602;-70
2021/12/13 03:18:53;;;;;;;121.40;39.10;;;;;;;-1.39;85.69;101457.95;83506;1335;1003166;-70
2021/12/13 03:21:16;;;;;;;119.20;40.00;;;;;;;-1.39;85.77;101457.10;84200;1338;25317;-70
2021/12/13 03:23:30;;;;;;;115.40;37.90;;;;;;;-1.38;85.54;101457.46;84209;1337;22758;-70
2021/12/13 03:25:44;;;;;;;114.70;37.90;;;;;;;-1.39;85.80;101457.44;84215;1337;24138;-68
2021/12/13 03:28:07;;;;;;;100.80;39.40;;;;;;;-1.39;85.60;101457.61;84205;1337;24315;-69
2021/12/13 03:30:14;;;;;;;112.00;39.70;;;;;;;-1.37;85.58;101455.64;84209;1338;25527;-74
2021/12/13 03:32:21;;;;;;;106.70;36.30;;;;;;;-1.37;85.73;101451.19;84175;1337;25451;-74
2021/12/13 03:34:30;;;;;;;104.60;37.20;;;;;;;-1.37;85.42;101450.13;84207;1338;22607;-74
2021/12/13 03:36:51;;;;;;;109.30;39.20;;;;;;;-1.40;85.49;101453.48;84225;1337;25315;-75
2021/12/13 03:39:01;;;;;;;110.90;39.70;;;;;;;-1.44;85.35;101448.42;84213;1337;22643;-73
2021/12/13 03:41:10;;;;;;;103.00;34.40;;;;;;;-1.48;85.33;101451.88;84174;1337;22821;-73
2021/12/13 03:43:19;;;;;;;113.70;36.60;;;;;;;-1.49;85.48;101453.91;84228;1338;22618;-73
2021/12/13 03:45:28;;;;;;;101.70;38.00;;;;;;;-1.48;85.42;101451.70;84191;1338;22760;-68
2021/12/13 03:47:38;;;;;;;107.50;36.50;;;;;;;-1.49;85.34;101448.10;84175;1338;22605;-68
2021/12/13 03:49:47;;;;;;;107.90;38.10;;;;;;;-1.51;85.36;101447.19;83477;1338;1003189;-73
2021/12/13 03:51:57;;;;;;;105.00;37.60;;;;;;;-1.52;85.42;101449.21;84217;1337;22863;-73
2021/12/13 03:54:07;;;;;;;107.10;35.70;;;;;;;-1.55;85.34;101454.77;84208;1338;23085;-73
2021/12/13 03:56:16;;;;;;;;;;;;;;;-1.55;85.50;101456.65;84197;1337;22599;-73
2021/12/13 03:58:24;;;;;;;108.40;35.10;;;;;;;-1.59;85.55;101454.65;84188;1338;23001;-75
2021/12/13 04:00:33;;;;;;;113.00;41.00;;;;;;;-1.59;85.68;101454.47;84221;1338;22759;-74
2021/12/13 04:02:39;;;;;;;103.50;34.50;;;;;;;-1.58;85.79;101455.55;84196;1340;25293;-73
2021/12/13 04:04:50;;;;;;;94.50;32.10;;;;;;;-1.58;85.59;101459.33;84215;1338;22634;-73
2021/12/13 04:06:58;;;;;;;97.60;35.20;;;;;;;-1.58;85.56;101464.94;84186;1337;22596;-73
2021/12/13 04:09:07;;;;;;;81.60;32.80;;;;;;;-1.55;85.78;101471.19;84206;1340;24025;-69
2021/12/13 04:11:14;;;;;;;102.30;37.20;;;;;;;-1.52;85.58;101467.52;84199;1337;22582;-69
2021/12/13 04:13:21;;;;;;;94.50;33.40;;;;;;;-1.48;85.79;101466.06;84194;1338;22612;-70
2021/12/13 04:15:38;;;;;;;97.20;34.90;;;;;;;-1.48;85.77;101465.90;84222;1338;25329;-74
2021/12/13 04:17:57;;;;;;;100.80;37.20;;;;;;;-1.48;85.64;101466.59;84193;1338;25462;-74
2021/12/13 04:20:05;;;;;;;98.50;32.70;;;;;;;-1.49;85.47;101462.80;84058;1341;22906;-75
2021/12/13 04:22:12;;;;;;;101.80;37.50;;;;;;;-1.51;85.57;101460.69;84173;1339;25066;-72
2021/12/13 04:24:24;;;;;;;91.80;33.00;;;;;;;-1.54;85.27;101459.93;84192;1337;26512;-69
2021/12/13 04:26:31;;;;;;;92.70;35.40;;;;;;;-1.56;85.36;101458.02;84061;1341;22806;-68
2021/12/13 04:28:42;;;;;;;88.60;32.00;;;;;;;-1.57;85.21;101459.17;84193;1337;22675;-70
2021/12/13 04:30:53;;;;;;;83.30;30.70;;;;;;;-1.58;85.17;101457.45;84195;1334;22634;-69
2021/12/13 04:33:01;;;;;;;95.20;33.80;;;;;;;-1.59;85.28;101452.27;84197;1338;24072;-69
2021/12/13 04:35:11;;;;;;;89.30;32.90;;;;;;;-1.58;85.01;101453.66;84218;1337;22619;-70
2021/12/13 04:37:20;;;;;;;85.20;30.90;;;;;;;-1.60;85.25;101455.14;84193;1338;25461;-68
2021/12/13 04:39:28;;;;;;;93.80;34.60;;;;;;;-1.64;85.07;101454.19;84081;1338;22679;-69
2021/12/13 04:41:36;;;;;;;89.10;32.90;;;;;;;-1.69;84.80;101449.57;84225;1337;24289;-68
2021/12/13 04:43:43;;;;;;;95.70;34.20;;;;;;;-1.74;84.84;101449.60;84088;1338;23070;-69
2021/12/13 04:45:53;;;;;;;88.50;33.30;;;;;;;-1.79;84.94;101452.55;84172;1337;22612;-69
2021/12/13 04:48:07;;;;;;;95.80;29.70;;;;;;;-1.78;85.25;101457.66;84205;1337;25586;-69
2021/12/13 04:50:19;;;;;;;84.80;32.50;;;;;;;-1.80;84.97;101459.34;84201;1338;22647;-66
2021/12/13 04:52:29;;;;;;;87.00;31.40;;;;;;;-1.80;85.29;101465.32;83470;1337;1008203;-69
2021/12/13 04:54:36;;;;;;;92.90;34.30;;;;;;;-1.79;85.16;101464.66;84223;1337;23074;-74
2021/12/13 04:56:43;;;;;;;95.40;37.80;;;;;;;-1.79;85.16;101467.59;84176;1338;23995;-73
2021/12/13 04:58:57;;;;;;;84.80;36.00;;;;;;;-1.79;85.27;101469.13;84198;1342;23871;-70
2021/12/13 05:01:06;;;;;;;90.10;33.40;;;;;;;-1.76;85.41;101470.05;84180;1338;25333;-73
2021/12/13 05:03:14;;;;;;;89.80;32.60;;;;;;;-1.78;85.22;101475.12;84163;1337;22744;-73
2021/12/13 05:05:21;;;;;;;95.00;34.90;;;;;;;-1.84;85.20;101479.60;84212;1337;22619;-74
2021/12/13 05:07:31;;;;;;;95.10;34.90;;;;;;;-1.89;85.08;101487.80;84191;1335;23142;-73
2021/12/13 05:09:37;;;;;;;83.40;31.30;;;;;;;-1.91;85.40;101489.81;84191;1338;22648;-73
2021/12/13 05:11:47;;;;;;;74.70;30.50;;;;;;;-1.87;85.57;101491.98;84177;1337;24900;-74
2021/12/13 05:13:54;;;;;;;;;;;;;;;-1.88;85.21;101488.70;84197;1336;24878;-69
2021/12/13 05:16:04;;;;;;;87.50;31.90;;;;;;;-1.92;85.28;101491.48;84158;1337;22611;-69
2021/12/13 05:18:19;;;;;;;87.00;31.00;;;;;;;-1.89;85.41;101486.10;84187;1342;22889;-69
2021/12/13 05:20:27;;;;;;;90.40;31.10;;;;;;;-1.86;85.47;101482.61;84206;1337;22635;-69
2021/12/13 05:22:34;;;;;;;84.50;31.30;;;;;;;-1.83;85.52;101477.89;84160;1338;24068;-68
2021/12/13 05:24:48;;;;;;;90.50;31.40;;;;;;;-1.84;85.37;101478.89;84181;1338;22719;-73
2021/12/13 05:26:59;;;;;;;82.60;29.00;;;;;;;-1.83;85.54;101476.52;84169;1337;24297;-74
2021/12/13 05:29:22;;;;;;;85.70;31.30;;;;;;;-1.84;85.34;101480.45;84132;1338;23996;-72
2021/12/13 05:31:33;;;;;;;82.80;28.50;;;;;;;-1.86;85.35;101482.26;84146;1338;22608;-72
2021/12/13 05:33:41;;;;;;;93.10;29.80;;;;;;;-1.89;85.36;101486.77;84148;1337;24301;-74
2021/12/13 05:35:51;;;;;;;87.30;30.70;;;;;;;-1.91;85.06;101493.89;84066;1338;22669;-73
2021/12/13 05:37:59;;;;;;;90.70;31.60;;;;;;;-1.94;85.15;101494.14;84175;1336;22625;-74
2021/12/13 05:40:08;;;;;;;91.20;31.80;;;;;;;-1.94;85.27;101496.53;84140;1337;22770;-75
2021/12/13 05:42:18;;;;;;;82.70;32.10;;;;;;;-1.94;85.31;101502.54;84154;1338;23149;-74
2021/12/13 05:44:28;;;;;;;84.80;29.10;;;;;;;-1.94;85.30;101505.08;84171;1337;22814;-69
2021/12/13 05:46:38;;;;;;;85.50;30.40;;;;;;;-1.93;85.55;101504.41;84142;1342;24271;-69
2021/12/13 05:48:51;;;;;;;92.70;31.80;;;;;;;-1.91;85.66;101506.91;84055;1338;25466;-72
2021/12/13 05:50:59;;;;;;;88.60;31.70;;;;;;;-1.90;85.65;101510.19;84145;1336;22626;-70
2021/12/13 05:53:11;;;;;;;89.30;30.70;;;;;;;-1.89;85.52;101507.63;84114;1337;23867;-69
2021/12/13 05:55:21;;;;;;;83.90;32.20;;;;;;;-1.90;85.43;101512.40;84123;1333;22616;-69
2021/12/13 05:57:30;;;;;;;89.20;27.80;;;;;;;-1.89;85.49;101517.05;84145;1335;23095;-69
2021/12/13 05:59:38;;;;;;;85.30;30.70;;;;;;;-1.86;85.53;101513.89;84160;1337;23706;-70
2021/12/13 06:01:53;;;;;;;98.00;32.20;;;;;;;-1.82;85.62;101514.01;84136;1338;25330;-69
2021/12/13 06:04:13;;;;;;;81.50;30.60;;;;;;;-1.80;85.63;101515.27;84138;1338;22998;-72
2021/12/13 06:06:28;;;;;;;86.70;32.00;;;;;;;-1.80;85.59;101518.70;84147;1337;24033;-69
2021/12/13 06:08:36;;;;;;;84.80;31.20;;;;;;;-1.80;85.53;101518.16;84154;1338;22621;-69
2021/12/13 06:10:52;;;;;;;86.20;32.00;;;;;;;-1.82;85.75;101522.25;84140;1338;25469;-73
2021/12/13 06:13:00;;;;;;;84.60;29.40;;;;;;;-1.82;85.68;101523.76;84132;1338;22619;-69
2021/12/13 06:15:30;;;;;;;89.80;30.70;;;;;;;-1.86;85.36;101523.63;84133;1341;24230;-75
2021/12/13 06:17:37;;;;;;;93.80;30.60;;;;;;;-1.89;85.46;101528.51;84159;1337;25338;-70
2021/12/13 06:19:48;;;;;;;82.70;29.00;;;;;;;-1.89;85.56;101528.85;84152;1337;22607;-74
2021/12/13 06:22:05;;;;;;;74.80;26.90;;;;;;;-1.87;85.48;101536.44;84065;1338;23917;-74
2021/12/13 06:24:15;;;;;;;85.60;28.60;;;;;;;-1.86;85.37;101536.45;84150;1337;22643;-70
2021/12/13 06:26:22;;;;;;;82.60;30.20;;;;;;;-1.88;85.39;101534.67;84167;1337;22702;-69
2021/12/13 06:28:30;;;;;;;73.60;28.10;;;;;;;-1.88;85.59;101535.70;84066;1338;22622;-70
2021/12/13 06:30:40;;;;;;;87.30;28.60;;;;;;;-1.89;85.28;101538.77;84081;1338;22622;-69
2021/12/13 06:32:53;;;;;;;87.30;28.90;;;;;;;-1.89;85.54;101540.80;84177;1338;22609;-76
2021/12/13 06:35:00;;;;;;;80.20;29.20;;;;;;;-1.90;85.53;101542.16;84180;1334;22630;-68
2021/12/13 06:37:08;;;;;;;88.40;30.40;;;;;;;-1.89;85.74;101545.27;83863;1340;22602;-69
2021/12/13 06:39:18;;;;;;;90.50;32.20;;;;;;;-1.85;85.81;101544.89;84188;1334;22741;-69
2021/12/13 06:41:40;;;;;;;84.40;28.30;;;;;;;-1.81;85.67;101546.02;84178;1333;22602;-70
2021/12/13 06:43:49;;;;;;;86.30;28.50;;;;;;;-1.81;85.41;101547.58;84199;1337;22910;-68
2021/12/13 06:45:56;;;;;;;83.60;27.60;;;;;;;-1.82;85.39;101546.36;84207;1337;23969;-76
2021/12/13 06:48:04;;;;;;;98.10;31.30;;;;;;;-1.79;85.48;101554.97;84230;1338;24378;-80
2021/12/13 06:50:12;;;;;;;91.20;31.50;;;;;;;-1.77;85.73;101555.41;84217;1337;22721;-72
2021/12/13 06:52:26;;;;;;;78.30;30.40;;;;;;;-1.77;85.68;101556.93;84217;1333;22663;-71
2021/12/13 06:54:36;;;;;;;97.30;33.10;;;;;;;-1.78;85.52;101558.77;83532;1335;1003722;-76
2021/12/13 06:56:52;;;;;;;78.10;30.80;;;;;;;-1.79;85.59;101565.76;84101;1338;23990;-75
2021/12/13 06:59:02;;;;;;;84.50;26.80;;;;;;;-1.82;85.63;101567.56;84195;1337;22902;-71
2021/12/13 07:01:10;;;;;;;94.00;30.80;;;;;;;-1.79;85.75;101560.45;84235;1337;22623;-73
2021/12/13 07:03:21;;;;;;;81.60;31.40;;;;;;;-1.77;85.53;101567.16;84188;1338;22855;-70
2021/12/13 07:05:28;;;;;;;80.00;28.20;;;;;;;-1.75;85.63;101571.20;84253;1337;22616;-70
2021/12/13 07:07:37;;;;;;;82.80;30.00;;;;;;;-1.75;85.45;101571.19;84205;1337;22612;-72
2021/12/13 07:09:50;;;;;;;82.00;30.00;;;;;;;-1.75;85.36;101568.98;84237;1337;22638;-78
2021/12/13 07:11:59;;;;;;;94.00;30.20;;;;;;;-1.73;85.74;101569.02;84206;1337;22702;-76
2021/12/13 07:14:07;;;;;;;104.00;34.00;;;;;;;-1.73;85.40;101573.65;84200;1338;22615;-73
2021/12/13 07:16:16;;;;;;;85.20;31.90;;;;;;;-1.72;85.63;101581.55;84215;1337;24074;-69
2021/12/13 07:18:30;;;;;;;102.40;32.70;;;;;;;-1.68;85.90;101578.60;84217;1337;25517;-69
2021/12/13 07:20:41;;;;;;;100.10;36.00;;;;;;;-1.65;85.78;101580.92;83529;1337;1003152;-69
2021/12/13 07:22:52;;;;;;;90.40;33.40;;;;;;;-1.62;85.62;101576.23;84023;1341;22612;-68
2021/12/13 07:25:06;;;;;;;93.40;33.30;;;;;;;-1.59;85.54;101577.48;84223;1339;22605;-70
2021/12/13 07:27:14;;;;;;;91.20;34.20;;;;;;;-1.62;85.37;101578.45;84221;1336;24395;-69
2021/12/13 07:29:25;;;;;;;85.90;34.70;;;;;;;-1.60;85.69;101586.02;84189;1338;22611;-69
2021/12/13 07:31:35;;;;;;;90.70;32.70;;;;;;;-1.56;85.71;101588.73;84218;1337;22623;-69
2021/12/13 07:33:49;;;;;;;97.50;33.50;;;;;;;-1.55;85.47;101590.47;84236;1334;22630;-69
2021/12/13 07:35:57;;;;;;;94.00;34.40;;;;;;;-1.57;85.33;101595.90;84115;1334;25454;-76
2021/12/13 07:38:04;;;;;;;98.50;34.10;;;;;;;-1.56;85.31;101592.66;84141;1338;24388;-74
2021/12/13 07:40:33;;;;;;;88.10;30.50;;;;;;;-1.58;85.19;101596.86;84231;1337;25288;-73
2021/12/13 07:42:40;;;;;;;87.30;31.10;;;;;;;-1.60;85.20;101600.58;83815;1339;22657;-75
2021/12/13 07:44:48;;;;;;;91.10;31.30;;;;;;;-1.60;85.27;101602.98;83821;1341;22726;-68
2021/12/13 07:47:07;;;;;;;88.70;33.90;;;;;;;-1.58;85.11;101603.39;83814;1341;22633;-67
2021/12/13 07:49:14;;;;;;;94.90;39.20;;;;;;;-1.55;85.29;101602.27;83769;1341;22574;-76
2021/12/13 07:51:25;;;;;;;101.20;34.90;;;;;;;-1.54;85.33;101605.70;83838;1341;22641;-77
2021/12/13 07:53:39;;;;;;;104.00;36.50;;;;;;;-1.51;85.32;101604.61;83863;1341;22613;-77
2021/12/13 07:55:49;;;;;;;98.40;34.10;;;;;;;-1.50;85.30;101602.59;84224;1337;22637;-67
2021/12/13 07:58:01;;;;;;;108.40;38.20;;;;;;;-1.48;85.26;101605.54;84200;1338;22701;-70
2021/12/13 08:00:15;;;;;;;106.30;38.70;;;;;;;-1.47;85.35;101609.85;84189;1337;22619;-75
2021/12/13 08:02:28;;;;;;;108.60;34.90;;;;;;;-1.45;85.52;101611.80;84216;1339;22735;-74
2021/12/13 08:04:45;;;;;;;107.40;39.00;;;;;;;-1.44;85.22;101611.15;84270;1335;23017;-68
2021/12/13 08:06:53;;;;;;;102.30;34.60;;;;;;;-1.42;85.18;101616.20;84208;1337;22881;-69
2021/12/13 08:09:04;;;;;;;101.60;38.00;;;;;;;-1.37;85.05;101617.38;84253;1337;23995;-75
2021/12/13 08:11:11;;;;;;;100.00;35.20;;;;;;;-1.33;85.34;101615.42;84210;1338;25564;-75
2021/12/13 08:13:20;;;;;;;101.60;37.00;;;;;;;-1.28;85.48;101616.42;84240;1333;22617;-76
2021/12/13 08:15:29;;;;;;;114.00;41.40;;;;;;;-1.22;85.56;101614.39;84226;1339;22684;-70
2021/12/13 08:17:43;;;;;;;97.60;37.50;;;;;;;-1.15;85.66;101614.59;84228;1337;24248;-69
2021/12/13 08:19:56;;;;;;;98.50;39.00;;;;;;;-1.14;85.45;101613.10;84225;1334;22653;-71
2021/12/13 08:22:12;;;;;;;105.50;35.80;;;;;;;-1.13;85.09;101618.96;84208;1337;22642;-70
2021/12/13 08:24:33;;;;;;;104.70;38.60;;;;;;;-1.15;85.06;101609.65;84216;1338;22646;-69
2021/12/13 08:26:41;;;;;;;110.40;38.20;;;;;;;-1.17;84.96;101612.32;84203;1337;24376;-70
2021/12/13 08:28:52;;;;;;;112.90;39.30;;;;;;;-1.20;84.64;101615.64;84193;1338;22631;-69
2021/12/13 08:30:59;;;;;;;117.40;39.70;;;;;;;-1.21;84.90;101615.28;84158;1338;22753;-70
2021/12/13 08:33:11;;;;;;;103.50;38.50;;;;;;;-1.20;85.14;101613.94;84206;1337;22759;-69
2021/12/13 08:35:18;;;;;;;99.40;39.10;;;;;;;-1.19;84.94;101616.20;84204;1337;22630;-76
2021/12/13 08:37:28;;;;;;;97.70;37.70;;;;;;;-1.22;85.05;101619.38;84216;1338;22737;-75
2021/12/13 08:39:37;;;;;;;102.20;39.00;;;;;;;-1.18;85.11;101615.70;84260;1334;24400;-69
2021/12/13 08:41:45;;;;;;;119.70;42.00;;;;;;;-1.15;85.37;101613.91;84213;1333;22618;-69
2021/12/13 08:43:55;;;;;;;100.80;36.00;;;;;;;-1.12;85.34;101613.67;84231;1337;22669;-72
2021/12/13 08:46:02;;;;;;;116.90;43.90;;;;;;;-1.12;85.19;101614.87;84223;1337;22625;-75
2021/12/13 08:48:12;;;;;;;118.30;41.10;;;;;;;-1.10;85.51;101615.77;84219;1337;25199;-77
2021/12/13 08:50:25;;;;;;;116.90;44.50;;;;;;;-1.03;85.47;101621.12;84228;1338;22636;-70
2021/12/13 08:52:36;;;;;;;120.20;42.60;;;;;;;-0.97;85.33;101624.38;84202;1338;24294;-70
2021/12/13 08:54:52;;;;;;;117.80;46.70;;;;;;;-0.88;85.32;101617.77;84223;1337;22615;-76
2021/12/13 08:56:58;;;;;;;116.90;44.10;;;;;;;-0.83;85.63;101617.27;84200;1338;22930;-73
2021/12/13 08:59:10;;;;;;;112.00;41.00;;;;;;;-0.79;85.32;101620.26;84211;1337;23842;-77
2021/12/13 09:01:17;;;;;;;131.90;48.90;;;;;;;-0.79;85.15;101619.92;84229;1337;22602;-76
2021/12/13 09:03:41;;;;;;;137.90;51.60;;;;;;;-0.77;85.02;101618.61;84210;1339;22717;-77
2021/12/13 09:05:59;;;;;;;116.70;40.80;;;;;;;-0.78;85.05;101620.98;84204;1337;23917;-70
2021/12/13 09:08:08;;;;;;;118.70;41.20;;;;;;;-0.77;84.98;101618.96;84132;1338;22623;-69
2021/12/13 09:10:14;;;;;;;119.90;42.80;;;;;;;-0.78;84.92;101621.67;84249;1338;25102;-76
2021/12/13 09:12:32;;;;;;;113.40;38.40;;;;;;;-0.78;84.82;101622.55;84213;1337;23959;-76
2021/12/13 09:14:43;;;;;;;115.60;42.50;;;;;;;-0.75;85.00;101621.75;84227;1337;24275;-70
2021/12/13 09:17:06;;;;;;;109.40;38.90;;;;;;;-0.72;85.07;101620.80;84197;1334;22976;-69
2021/12/13 09:19:19;;;;;;;144.30;48.80;;;;;;;-0.71;84.70;101618.80;84228;1339;25464;-69
2021/12/13 09:21:26;;;;;;;121.30;43.60;;;;;;;-0.70;84.62;101620.88;84105;1339;22644;-70
2021/12/13 09:23:38;;;;;;;132.10;42.80;;;;;;;-0.69;84.96;101617.80;84217;1337;24295;-69
2021/12/13 09:25:50;;;;;;;112.00;41.90;;;;;;;-0.69;84.58;101616.45;84214;1338;22964;-69
2021/12/13 09:27:59;;;;;;;134.70;43.60;;;;;;;-0.72;84.75;101610.88;84232;1339;23913;-69
2021/12/13 09:30:19;;;;;;;127.10;47.10;;;;;;;-0.73;84.55;101608.96;84235;1338;25326;-75
2021/12/13 09:32:35;;;;;;;115.80;40.40;;;;;;;-0.75;84.64;101609.06;84202;1328;22954;-69
2021/12/13 09:34:45;;;;;;;136.20;44.00;;;;;;;-0.73;84.75;101607.77;83506;1338;1002998;-70
2021/12/13 09:36:58;;;;;;;108.50;37.30;;;;;;;-0.70;84.69;101606.65;84197;1337;22640;-68
2021/12/13 09:39:07;;;;;;;131.40;40.40;;;;;;;-0.66;84.66;101604.52;84073;1340;24333;-73
2021/12/13 09:41:27;;;;;;;121.00;42.80;;;;;;;-0.64;84.51;101606.29;84099;1338;24253;-74
2021/12/13 09:43:44;;;;;;;135.10;44.90;;;;;;;-0.65;84.66;101608.15;84200;1337;22622;-73
2021/12/13 09:45:54;;;;;;;116.90;42.10;;;;;;;-0.63;84.68;101611.83;84208;1341;22605;-71
2021/12/13 09:48:03;;;;;;;121.80;41.60;;;;;;;-0.61;84.81;101611.02;84221;1339;22624;-70
2021/12/13 09:50:18;;;;;;;129.70;43.30;;;;;;;-0.60;84.75;101609.51;84217;1337;22624;-73
2021/12/13 09:52:28;;;;;;;128.70;43.40;;;;;;;-0.60;84.77;101607.95;84217;1339;22631;-75
2021/12/13 09:54:39;;;;;;;130.80;41.70;;;;;;;-0.59;84.45;101608.50;84215;1337;22608;-72
2021/12/13 09:56:49;;;;;;;117.90;39.30;;;;;;;-0.57;84.50;101609.08;84227;1338;22693;-72